Time;durP1;ratioP1;P1;durP2;ratioP2;P2;SDS_P1;SDS_P2;PMS_P1;PMS_P2;Temp;Humidity;BMP_temperature;BMP_pressure;BME280_temperature;BME280_humidity;BME280_pressure;Samples;Min_cycle;Max_cycle;Signal;HPM_P1;HPM_P2
2023/03/16 01:41:46;;;;;;;11.70;4.77;;;-0.90;99.90;;;;;;5032822;28;20421;-66
2023/03/16 01:44:15;;;;;;;11.60;6.27;;;-0.90;99.90;;;;;;5035854;28;20474;-66
2023/03/16 01:46:43;;;;;;;14.13;6.20;;;-0.80;99.90;;;;;;5036979;28;21064;-67
2023/03/16 01:49:11;;;;;;;10.17;5.50;;;-0.80;99.90;;;;;;5035532;28;20431;-66
2023/03/16 01:52:12;;;;;;;11.83;6.10;;;-0.80;99.90;;;;;;5021372;28;20452;-67
2023/03/16 01:54:42;;;;;;;14.30;6.13;;;-0.80;99.90;;;;;;5032113;28;20460;-66
2023/03/16 01:57:20;;;;;;;8.80;5.17;;;-0.80;99.90;;;;;;5033871;28;21061;-66
2023/03/16 01:59:56;;;;;;;14.53;7.00;;;-0.80;99.90;;;;;;5033195;28;20436;-67
2023/03/16 02:02:25;;;;;;;13.87;6.73;;;-0.90;99.90;;;;;;5030272;28;20428;-67
2023/03/16 02:05:14;;;;;;;15.60;7.00;;;-0.90;99.90;;;;;;5032701;28;20774;-67
2023/03/16 02:07:45;;;;;;;12.97;6.83;;;-0.90;99.90;;;;;;5022710;28;20792;-67
2023/03/16 02:10:13;;;;;;;13.17;6.97;;;-0.90;99.90;;;;;;5039223;28;20425;-67
2023/03/16 02:12:39;;;;;;;12.07;6.10;;;-0.90;99.90;;;;;;5033002;28;20441;-67
2023/03/16 02:15:05;;;;;;;12.93;6.20;;;-0.90;99.90;;;;;;5040454;28;20770;-67
2023/03/16 02:17:33;;;;;;;10.53;7.27;;;-1.00;99.90;;;;;;5041282;28;20249;-67
2023/03/16 02:20:15;;;;;;;12.17;7.00;;;-1.00;99.90;;;;;;5036457;28;20432;-66
2023/03/16 02:22:44;;;;;;;12.70;7.27;;;-1.00;99.90;;;;;;5033778;28;20441;-67
2023/03/16 02:25:13;;;;;;;16.37;6.23;;;-1.00;99.90;;;;;;5036123;28;20417;-66
2023/03/16 02:28:04;;;;;;;17.77;6.93;;;-1.00;99.90;;;;;;5025071;28;20473;-67
2023/03/16 02:30:31;;;;;;;10.90;6.40;;;-1.00;99.90;;;;;;5017363;28;20433;-67
2023/03/16 02:32:56;;;;;;;18.43;7.57;;;-1.10;99.90;;;;;;5016668;28;20868;-67
2023/03/16 02:35:22;;;;;;;18.30;7.30;;;-1.10;99.90;;;;;;5034517;28;20499;-67
2023/03/16 02:37:48;;;;;;;13.50;7.40;;;-1.10;99.90;;;;;;5039257;28;20296;-67
2023/03/16 02:40:33;;;;;;;15.10;7.43;;;-1.10;99.90;;;;;;5040415;28;20182;-67
2023/03/16 02:43:09;;;;;;;11.67;6.90;;;-1.20;99.90;;;;;;5017930;28;20232;-67
2023/03/16 02:45:57;;;;;;;17.30;7.70;;;-1.20;99.90;;;;;;5033043;28;20420;-67
2023/03/16 02:48:31;;;;;;;13.70;6.77;;;-1.20;99.90;;;;;;5034097;28;20984;-67
2023/03/16 02:50:57;;;;;;;13.90;6.23;;;-1.20;99.90;;;;;;5028753;28;20419;-66
2023/03/16 02:53:23;;;;;;;9.40;5.60;;;-1.20;99.90;;;;;;5031654;28;20930;-67
2023/03/16 02:55:49;;;;;;;7.87;5.10;;;-1.20;99.90;;;;;;5032423;28;20425;-67
2023/03/16 02:58:15;;;;;;;8.40;5.50;;;-1.20;99.90;;;;;;5029047;28;20476;-66
2023/03/16 03:00:41;;;;;;;9.70;5.33;;;-1.10;99.90;;;;;;5035777;28;20539;-67
2023/03/16 03:03:08;;;;;;;11.97;5.47;;;-1.10;99.90;;;;;;5029867;28;20512;-66
2023/03/16 03:05:34;;;;;;;11.27;6.40;;;-1.10;99.90;;;;;;5038011;28;20816;-67
2023/03/16 03:08:00;;;;;;;16.47;6.03;;;-1.10;99.90;;;;;;5032381;28;20452;-67
2023/03/16 03:10:26;;;;;;;10.50;5.50;;;-1.10;99.90;;;;;;5030865;28;20441;-67
2023/03/16 03:12:51;;;;;;;11.90;4.33;;;-1.20;99.90;;;;;;5030517;28;20206;-67
2023/03/16 03:15:18;;;;;;;7.90;4.50;;;-1.30;99.90;;;;;;5035594;28;20197;-67
2023/03/16 03:17:43;;;;;;;8.67;4.33;;;-1.30;99.90;;;;;;5035948;28;20213;-67
2023/03/16 03:20:18;;;;;;;11.80;5.00;;;-1.40;99.90;;;;;;5034002;28;20445;-67
2023/03/16 03:22:47;;;;;;;10.57;4.43;;;-1.40;99.90;;;;;;5028864;28;20182;-67
2023/03/16 03:25:15;;;;;;;6.80;4.60;;;-1.30;99.90;;;;;;5029006;28;20838;-66
2023/03/16 03:27:42;;;;;;;12.10;4.60;;;-1.30;99.90;;;;;;5035828;28;20574;-67
2023/03/16 03:30:10;;;;;;;15.30;4.13;;;-1.30;99.90;;;;;;5037996;28;20437;-66
2023/03/16 03:32:35;;;;;;;9.93;4.60;;;-1.30;99.90;;;;;;5028388;28;20441;-67
2023/03/16 03:35:01;;;;;;;5.70;3.53;;;-1.30;99.90;;;;;;5030486;28;20437;-67
2023/03/16 03:37:27;;;;;;;6.67;4.57;;;-1.40;99.90;;;;;;5030708;28;20250;-66
2023/03/16 03:39:53;;;;;;;7.27;5.10;;;-1.50;99.90;;;;;;5033138;28;20202;-66
2023/03/16 03:42:19;;;;;;;7.83;4.50;;;-1.50;99.90;;;;;;5034017;28;20455;-66
2023/03/16 03:44:44;;;;;;;12.47;5.27;;;-1.50;99.90;;;;;;5035494;28;20192;-66
2023/03/16 03:47:10;;;;;;;9.17;4.37;;;-1.50;99.90;;;;;;5038410;28;20658;-66
2023/03/16 03:49:35;;;;;;;8.20;4.63;;;-1.40;99.90;;;;;;5030103;28;20202;-66
2023/03/16 03:52:03;;;;;;;10.13;5.47;;;-1.40;99.90;;;;;;5029992;28;20190;-66
2023/03/16 03:54:30;;;;;;;6.37;3.70;;;-1.40;99.90;;;;;;5038072;28;20199;-66
2023/03/16 03:56:55;;;;;;;7.60;3.90;;;-1.50;99.90;;;;;;5033400;28;20465;-66
2023/03/16 03:59:21;;;;;;;4.90;3.70;;;-1.60;99.90;;;;;;5037354;28;20469;-66
2023/03/16 04:01:47;;;;;;;6.40;3.73;;;-1.50;99.90;;;;;;5032774;28;20202;-67
2023/03/16 04:04:13;;;;;;;6.10;3.53;;;-1.60;99.90;;;;;;5032147;28;20445;-67
2023/03/16 04:06:40;;;;;;;7.87;5.03;;;-1.50;99.90;;;;;;5025661;28;20445;-68
2023/03/16 04:09:06;;;;;;;8.53;4.10;;;-1.40;99.90;;;;;;5031064;28;20182;-70
2023/03/16 04:11:32;;;;;;;7.00;3.87;;;-1.40;99.90;;;;;;5028988;28;20453;-65
2023/03/16 04:13:58;;;;;;;8.40;4.33;;;-1.50;99.90;;;;;;5030790;28;20452;-65
2023/03/16 04:16:25;;;;;;;5.73;3.20;;;-1.50;99.90;;;;;;5031840;28;20806;-65
2023/03/16 04:18:53;;;;;;;5.33;3.20;;;-1.50;99.90;;;;;;5024752;28;20183;-65
2023/03/16 04:21:19;;;;;;;4.83;3.67;;;-1.60;99.90;;;;;;5032102;28;20536;-65
2023/03/16 04:23:45;;;;;;;9.50;3.53;;;-1.70;99.90;;;;;;5033529;28;20425;-65
2023/03/16 04:26:11;;;;;;;5.13;3.00;;;-1.70;99.90;;;;;;5031328;28;20497;-65
2023/03/16 04:28:37;;;;;;;7.30;3.53;;;-1.70;99.90;;;;;;5030198;28;20868;-65
2023/03/16 04:31:05;;;;;;;5.60;3.73;;;-1.70;99.90;;;;;;5026038;28;20199;-65
2023/03/16 04:33:32;;;;;;;5.97;3.13;;;-1.60;99.90;;;;;;5030173;28;20193;-65
2023/03/16 04:35:58;;;;;;;9.57;4.10;;;-1.60;99.90;;;;;;5033128;28;20436;-65
2023/03/16 04:38:24;;;;;;;6.97;3.97;;;-1.60;99.90;;;;;;5034529;28;20516;-65
2023/03/16 04:40:50;;;;;;;4.60;3.23;;;-1.60;99.90;;;;;;5032422;28;20803;-65
2023/03/16 04:43:16;;;;;;;9.77;3.57;;;-1.60;99.90;;;;;;5032144;28;20614;-65
2023/03/16 04:45:41;;;;;;;6.00;3.47;;;-1.60;99.90;;;;;;5035290;28;20178;-65
2023/03/16 04:48:08;;;;;;;8.60;3.13;;;-1.60;99.90;;;;;;5037865;28;20678;-65
2023/03/16 04:50:34;;;;;;;5.77;2.80;;;-1.70;99.90;;;;;;5028520;28;20194;-65
2023/03/16 04:53:00;;;;;;;6.53;3.07;;;-1.70;99.90;;;;;;5030497;28;20488;-66
2023/03/16 04:55:25;;;;;;;8.53;3.77;;;-1.70;99.90;;;;;;5022758;28;20525;-65
2023/03/16 04:57:51;;;;;;;8.03;3.40;;;-1.70;99.90;;;;;;5025143;28;20304;-64
2023/03/16 05:00:19;;;;;;;10.10;3.90;;;-1.60;99.90;;;;;;5028124;28;20202;-65
2023/03/16 05:02:48;;;;;;;4.20;3.17;;;-1.60;99.90;;;;;;5036241;28;20225;-65
2023/03/16 05:05:14;;;;;;;4.27;2.70;;;-1.60;99.90;;;;;;5028304;28;20429;-65
2023/03/16 05:07:41;;;;;;;6.33;3.30;;;-1.60;99.90;;;;;;5030372;28;20941;-66
2023/03/16 05:10:08;;;;;;;7.73;2.70;;;-1.70;99.90;;;;;;5028806;28;20429;-65
2023/03/16 05:12:34;;;;;;;4.30;2.20;;;-1.80;99.90;;;;;;5029762;28;20463;-64
2023/03/16 05:15:00;;;;;;;9.23;4.00;;;-1.90;99.90;;;;;;5029600;28;20511;-64
2023/03/16 05:17:26;;;;;;;10.40;2.93;;;-1.90;99.90;;;;;;5027215;28;20214;-64
2023/03/16 05:19:52;;;;;;;11.27;3.80;;;-1.90;99.90;;;;;;5029171;28;20913;-65
2023/03/16 05:22:18;;;;;;;10.30;4.00;;;-1.90;99.90;;;;;;5027914;28;20476;-65
2023/03/16 05:24:43;;;;;;;8.60;4.57;;;-1.90;99.90;;;;;;5028397;28;20178;-65
2023/03/16 05:27:09;;;;;;;11.43;4.43;;;-1.90;99.90;;;;;;5023551;28;20225;-65
2023/03/16 05:29:34;;;;;;;13.27;5.43;;;-1.90;99.90;;;;;;5029585;28;20198;-65
2023/03/16 05:32:00;;;;;;;15.03;5.80;;;-1.90;99.90;;;;;;5027108;28;20190;-65
2023/03/16 05:34:26;;;;;;;11.93;5.30;;;-1.80;99.90;;;;;;5030094;28;20274;-65
2023/03/16 05:36:52;;;;;;;8.60;4.70;;;-1.80;99.90;;;;;;5027210;28;20210;-65
2023/03/16 05:39:18;;;;;;;8.93;4.40;;;-1.80;99.90;;;;;;5029059;28;20482;-65
2023/03/16 05:41:43;;;;;;;6.93;3.57;;;-1.80;99.90;;;;;;5027082;28;20190;-66
2023/03/16 05:44:09;;;;;;;8.70;3.60;;;-1.80;99.90;;;;;;5028673;28;20639;-68
2023/03/16 05:46:35;;;;;;;15.13;5.03;;;-1.80;99.90;;;;;;5014882;28;20194;-65
2023/03/16 05:49:01;;;;;;;9.30;4.70;;;-1.80;99.90;;;;;;5029650;28;20437;-65
2023/03/16 05:51:27;;;;;;;15.47;4.37;;;-1.80;99.90;;;;;;5031087;28;20194;-65
2023/03/16 05:53:56;;;;;;;8.13;4.20;;;-1.80;99.90;;;;;;5035882;28;20451;-65
2023/03/16 05:56:26;;;;;;;9.73;4.40;;;-1.90;99.90;;;;;;5034826;28;20218;-65
2023/03/16 05:58:53;;;;;;;8.87;4.70;;;-1.90;99.90;;;;;;5034058;28;20578;-65
2023/03/16 06:01:20;;;;;;;7.23;3.97;;;-1.90;99.90;;;;;;5026088;28;20453;-65
2023/03/16 06:03:47;;;;;;;7.40;4.40;;;-1.90;99.90;;;;;;5028672;28;20440;-65
2023/03/16 06:06:15;;;;;;;10.43;5.00;;;-1.90;99.90;;;;;;5034572;28;20977;-65
2023/03/16 06:08:40;;;;;;;12.93;4.53;;;-1.90;99.90;;;;;;5033990;28;20447;-65
2023/03/16 06:11:06;;;;;;;10.10;4.60;;;-1.90;99.90;;;;;;5029941;28;20503;-65
2023/03/16 06:13:32;;;;;;;7.07;3.87;;;-1.80;99.90;;;;;;5029458;28;20191;-65
2023/03/16 06:15:58;;;;;;;7.47;3.60;;;-1.80;99.90;;;;;;5032251;28;20189;-65
2023/03/16 06:18:23;;;;;;;6.63;3.20;;;-1.70;99.90;;;;;;5027748;28;20264;-65
2023/03/16 06:20:49;;;;;;;6.37;3.40;;;-1.70;99.90;;;;;;5031754;28;20285;-65
2023/03/16 06:23:14;;;;;;;5.67;3.67;;;-1.70;99.90;;;;;;5030894;28;20644;-66
2023/03/16 06:25:40;;;;;;;3.80;2.43;;;-1.70;99.90;;;;;;5032223;28;20492;-65
2023/03/16 06:28:06;;;;;;;9.33;3.70;;;-1.60;99.90;;;;;;5038597;28;20203;-65
2023/03/16 06:30:32;;;;;;;9.20;4.30;;;-1.60;99.90;;;;;;5033462;28;20194;-66
2023/03/16 06:32:59;;;;;;;7.07;3.43;;;-1.60;99.90;;;;;;5024042;28;20910;-66
2023/03/16 06:35:25;;;;;;;6.07;3.67;;;-1.60;99.90;;;;;;5033033;28;20233;-66
2023/03/16 06:37:51;;;;;;;10.37;4.80;;;-1.60;99.90;;;;;;5032176;28;20531;-66
2023/03/16 06:40:16;;;;;;;13.53;5.50;;;-1.50;99.90;;;;;;5014052;28;20874;-66
2023/03/16 06:42:42;;;;;;;7.90;4.20;;;-1.50;99.90;;;;;;5027708;28;20183;-66
2023/03/16 06:45:09;;;;;;;8.83;4.87;;;-1.40;99.90;;;;;;5030653;28;20788;-66
2023/03/16 06:47:36;;;;;;;20.07;3.80;;;-1.40;99.90;;;;;;5034019;28;20670;-66
2023/03/16 06:50:02;;;;;;;15.40;5.00;;;-1.30;99.90;;;;;;5030304;28;20512;-66
2023/03/16 06:52:29;;;;;;;6.33;3.83;;;-1.20;99.90;;;;;;5041230;28;20768;-66
2023/03/16 06:54:54;;;;;;;17.33;5.90;;;-1.10;99.90;;;;;;5029901;28;20451;-66
2023/03/16 06:57:20;;;;;;;7.37;4.53;;;-1.00;99.90;;;;;;4995725;28;21250;-66
2023/03/16 06:59:46;;;;;;;6.53;4.80;;;-0.90;99.90;;;;;;5028695;28;20651;-66
2023/03/16 07:02:13;;;;;;;9.20;5.07;;;-0.70;99.90;;;;;;5029331;28;20194;-66
2023/03/16 07:04:39;;;;;;;15.60;5.03;;;-0.60;99.90;;;;;;5027891;28;20237;-66
2023/03/16 07:07:05;;;;;;;10.90;5.20;;;-0.40;99.90;;;;;;5026472;28;20982;-66
2023/03/16 07:09:30;;;;;;;9.00;4.97;;;-0.20;99.90;;;;;;5029745;28;20543;-66
2023/03/16 07:11:56;;;;;;;9.07;4.33;;;-0.10;99.90;;;;;;5029733;28;20206;-66
2023/03/16 07:14:23;;;;;;;11.83;4.10;;;0.10;99.90;;;;;;5028393;28;20225;-66
2023/03/16 07:16:49;;;;;;;8.13;4.83;;;0.40;99.90;;;;;;5029247;28;20229;-66
2023/03/16 07:19:15;;;;;;;19.13;6.93;;;0.60;99.90;;;;;;5030047;28;20501;-66
2023/03/16 07:21:40;;;;;;;26.13;7.77;;;0.70;99.90;;;;;;5018122;28;20209;-66
2023/03/16 07:24:08;;;;;;;28.13;9.10;;;0.90;99.90;;;;;;5026307;28;20196;-65
2023/03/16 07:26:34;;;;;;;12.13;5.93;;;1.20;99.90;;;;;;5027374;28;20194;-66
2023/03/16 07:28:59;;;;;;;15.97;6.63;;;1.40;99.90;;;;;;5033759;28;20649;-66
2023/03/16 07:31:25;;;;;;;12.70;5.43;;;1.60;99.90;;;;;;5034900;28;20365;-66
2023/03/16 07:33:51;;;;;;;10.97;4.03;;;1.90;99.90;;;;;;5030604;28;20281;-66
2023/03/16 07:36:17;;;;;;;10.30;4.30;;;2.40;99.90;;;;;;5028528;28;20201;-66
2023/03/16 07:38:43;;;;;;;9.30;4.60;;;3.10;99.90;;;;;;5029493;28;20659;-65
2023/03/16 07:41:08;;;;;;;8.27;4.00;;;3.60;99.90;;;;;;5029837;28;20437;-66
2023/03/16 07:43:34;;;;;;;6.60;4.13;;;4.20;99.90;;;;;;5030311;28;20182;-67
2023/03/16 07:46:01;;;;;;;12.30;4.20;;;4.70;99.90;;;;;;5029284;28;20301;-66
2023/03/16 07:48:26;;;;;;;6.60;3.50;;;5.50;99.90;;;;;;5038366;28;20193;-67
2023/03/16 07:50:53;;;;;;;8.60;4.33;;;6.10;99.90;;;;;;5035459;28;21048;-66
2023/03/16 07:53:19;;;;;;;5.30;2.90;;;7.30;99.50;;;;;;5028636;28;20193;-66
2023/03/16 07:55:45;;;;;;;8.10;2.83;;;7.80;98.30;;;;;;5034531;28;20449;-66
2023/03/16 07:58:11;;;;;;;5.83;2.77;;;8.40;97.10;;;;;;5028202;28;20472;-66
2023/03/16 08:00:38;;;;;;;5.00;2.70;;;8.80;95.90;;;;;;5031997;28;20500;-66
2023/03/16 08:03:04;;;;;;;6.20;2.53;;;9.20;94.90;;;;;;5030824;28;20949;-66
2023/03/16 08:05:31;;;;;;;6.50;3.00;;;9.60;94.00;;;;;;5031942;28;21104;-66
2023/03/16 08:07:57;;;;;;;4.37;2.73;;;9.60;93.30;;;;;;5030947;28;20451;-66
2023/03/16 08:10:24;;;;;;;5.27;2.77;;;9.60;93.20;;;;;;5026634;28;20795;-66
2023/03/16 08:12:50;;;;;;;6.07;2.77;;;9.50;93.90;;;;;;5022798;28;20446;-66
2023/03/16 08:15:16;;;;;;;4.77;2.80;;;9.20;93.90;;;;;;5033126;28;20520;-66
2023/03/16 08:17:41;;;;;;;5.17;2.60;;;9.70;93.40;;;;;;5023311;28;21119;-66
2023/03/16 08:20:11;;;;;;;3.03;1.90;;;9.70;93.10;;;;;;5028403;28;20631;-66
2023/03/16 08:22:37;;;;;;;6.10;2.57;;;9.70;93.30;;;;;;5021233;28;20263;-66
2023/03/16 08:25:04;;;;;;;3.50;1.60;;;10.00;91.60;;;;;;5027932;28;20440;-66
2023/03/16 08:27:30;;;;;;;10.37;1.90;;;9.60;92.70;;;;;;5033790;28;20195;-66
2023/03/16 08:29:56;;;;;;;4.50;3.00;;;9.30;91.90;;;;;;5029142;28;20543;-66
2023/03/16 08:32:22;;;;;;;5.03;2.10;;;8.90;93.10;;;;;;5028803;28;20211;-66
2023/03/16 08:34:48;;;;;;;2.77;1.60;;;9.80;92.20;;;;;;5029181;28;20189;-67
2023/03/16 08:37:15;;;;;;;3.27;2.37;;;9.70;92.00;;;;;;5036230;28;20300;-67
2023/03/16 08:39:42;;;;;;;3.43;2.07;;;9.30;92.70;;;;;;5040052;28;20513;-67
2023/03/16 08:42:09;;;;;;;3.33;1.80;;;9.80;91.90;;;;;;5033478;28;20454;-66
2023/03/16 08:44:35;;;;;;;2.80;1.77;;;9.60;93.00;;;;;;5026503;28;20443;-67
2023/03/16 08:47:01;;;;;;;5.20;2.13;;;9.70;93.00;;;;;;5041944;28;20460;-66
2023/03/16 08:49:28;;;;;;;4.77;2.20;;;9.40;92.80;;;;;;5043454;28;20451;-67
2023/03/16 08:51:53;;;;;;;2.80;1.50;;;9.80;92.40;;;;;;5042960;28;20443;-67
2023/03/16 08:54:19;;;;;;;3.07;1.67;;;9.20;92.70;;;;;;5032578;28;20425;-66
2023/03/16 08:56:45;;;;;;;4.40;2.43;;;9.60;92.90;;;;;;5040575;28;20564;-67
2023/03/16 08:59:10;;;;;;;3.70;1.60;;;10.10;91.90;;;;;;5031563;28;20230;-67
2023/03/16 09:01:36;;;;;;;3.00;1.83;;;9.90;92.00;;;;;;5027629;28;20285;-66
2023/03/16 09:04:02;;;;;;;8.20;2.03;;;9.70;92.60;;;;;;5028118;28;20175;-67
2023/03/16 09:06:28;;;;;;;4.57;2.13;;;9.50;92.70;;;;;;5032637;28;20182;-67
2023/03/16 09:08:54;;;;;;;2.63;1.33;;;9.30;92.60;;;;;;5027341;28;20204;-66
2023/03/16 09:11:21;;;;;;;2.00;1.37;;;9.30;92.60;;;;;;5028336;28;20186;-67
2023/03/16 09:13:47;;;;;;;3.87;1.60;;;9.60;91.70;;;;;;5014062;28;20429;-66
2023/03/16 09:16:14;;;;;;;5.33;1.87;;;9.40;91.90;;;;;;5034966;28;20416;-66
2023/03/16 09:18:41;;;;;;;3.10;1.70;;;9.90;90.90;;;;;;5031193;28;20424;-66
2023/03/16 09:21:09;;;;;;;3.90;1.97;;;9.70;90.70;;;;;;5033405;28;20600;-66
2023/03/16 09:23:40;;;;;;;3.90;1.77;;;9.80;91.20;;;;;;5045096;28;20865;-67
2023/03/16 09:26:06;;;;;;;3.47;1.57;;;9.50;91.50;;;;;;5038233;28;20421;-66
2023/03/16 09:28:33;;;;;;;2.67;1.30;;;9.40;91.40;;;;;;5031976;28;21165;-66
2023/03/16 09:31:01;;;;;;;3.03;1.30;;;9.30;92.00;;;;;;5032274;28;20428;-66
2023/03/16 09:33:28;;;;;;;3.80;1.70;;;9.30;90.90;;;;;;5032665;28;20421;-66
2023/03/16 09:35:56;;;;;;;5.67;1.60;;;9.00;90.50;;;;;;5040941;28;20507;-66
2023/03/16 09:38:25;;;;;;;2.43;1.33;;;8.50;91.70;;;;;;5043258;28;20815;-66
2023/03/16 09:41:06;;;;;;;3.03;1.33;;;8.20;91.40;;;;;;5041681;28;20431;-66
2023/03/16 09:43:48;;;;;;;2.33;1.50;;;8.00;91.90;;;;;;5044699;28;20417;-66
2023/03/16 09:46:33;;;;;;;6.47;1.47;;;7.80;92.00;;;;;;5032133;28;20429;-66
2023/03/16 09:48:59;;;;;;;6.57;1.50;;;7.40;92.50;;;;;;5031100;28;20428;-66
2023/03/16 09:51:37;;;;;;;2.63;1.07;;;7.40;93.70;;;;;;5035985;28;20498;-66
2023/03/16 09:54:14;;;;;;;3.33;1.77;;;7.40;93.70;;;;;;5051244;28;20428;-66
2023/03/16 09:56:42;;;;;;;6.53;1.73;;;7.40;94.10;;;;;;5032760;28;20566;-66
2023/03/16 09:59:12;;;;;;;4.07;1.57;;;7.60;93.40;;;;;;5031009;28;20452;-66
2023/03/16 10:01:44;;;;;;;3.50;1.60;;;7.50;93.40;;;;;;5031191;28;20441;-66
2023/03/16 10:04:25;;;;;;;2.97;1.70;;;7.50;94.00;;;;;;5031267;28;20425;-66
2023/03/16 10:07:01;;;;;;;2.90;1.10;;;7.70;94.50;;;;;;5026039;28;20478;-66
2023/03/16 10:09:33;;;;;;;3.23;1.50;;;8.10;92.50;;;;;;5023667;28;20428;-65
2023/03/16 10:12:02;;;;;;;13.07;1.30;;;8.00;92.90;;;;;;5031141;28;20425;-66
2023/03/16 10:14:45;;;;;;;4.10;2.00;;;8.20;93.50;;;;;;5031264;28;20420;-66
2023/03/16 10:17:20;;;;;;;5.30;1.63;;;8.40;92.50;;;;;;5031801;28;20469;-66
2023/03/16 10:20:16;;;;;;;2.03;0.93;;;8.30;91.70;;;;;;5043719;23;20399;-66
2023/03/16 10:22:44;;;;;;;2.30;1.10;;;8.40;93.40;;;;;;5009274;28;20434;-67
2023/03/16 10:25:48;;;;;;;3.07;1.20;;;8.20;91.70;;;;;;5011103;28;21066;-66
2023/03/16 10:28:27;;;;;;;7.63;1.67;;;8.30;91.90;;;;;;5011470;28;20730;-66
2023/03/16 10:30:55;;;;;;;2.53;0.83;;;8.40;91.60;;;;;;5007133;28;20449;-66
2023/03/16 10:33:26;;;;;;;7.03;1.13;;;8.40;91.50;;;;;;5010857;28;20441;-64
2023/03/16 10:36:04;;;;;;;3.23;1.83;;;8.50;92.20;;;;;;5000145;28;20427;-64
2023/03/16 10:38:37;;;;;;;5.13;1.90;;;8.60;91.40;;;;;;5009618;28;20477;-64
2023/03/16 10:41:05;;;;;;;2.27;1.07;;;8.80;91.30;;;;;;5010055;28;20426;-64
2023/03/16 10:43:31;;;;;;;2.63;1.43;;;8.80;91.10;;;;;;4997741;28;20422;-64
2023/03/16 10:46:00;;;;;;;5.13;1.43;;;9.00;91.70;;;;;;5011042;28;20425;-64
2023/03/16 10:48:27;;;;;;;1.80;1.07;;;9.10;90.90;;;;;;5018560;28;20429;-64
2023/03/16 10:50:56;;;;;;;1.83;1.20;;;9.10;87.70;;;;;;5017322;28;20472;-64
2023/03/16 10:53:29;;;;;;;3.10;1.50;;;9.00;90.10;;;;;;5018834;28;20425;-65
2023/03/16 10:55:59;;;;;;;2.17;1.33;;;9.00;89.20;;;;;;5011486;28;20422;-65
2023/03/16 10:58:29;;;;;;;2.00;1.00;;;9.20;89.50;;;;;;5003417;28;20469;-65
2023/03/16 11:00:55;;;;;;;3.07;1.40;;;9.40;88.00;;;;;;5012049;28;20450;-65
2023/03/16 11:03:26;;;;;;;2.27;1.30;;;9.40;86.70;;;;;;5011060;28;20425;-66
2023/03/16 11:06:03;;;;;;;3.03;1.10;;;9.40;87.10;;;;;;4998979;28;20186;-66
2023/03/16 11:08:34;;;;;;;3.80;1.30;;;9.50;87.00;;;;;;5007481;28;20451;-66
2023/03/16 11:11:07;;;;;;;2.73;1.37;;;9.50;85.40;;;;;;5013829;28;20413;-66
2023/03/16 11:13:37;;;;;;;1.50;0.77;;;9.60;84.90;;;;;;5014007;28;20422;-66
2023/03/16 11:16:34;;;;;;;1.20;0.60;;;9.70;85.80;;;;;;5010597;28;20418;-66
2023/03/16 11:19:22;;;;;;;2.27;0.93;;;9.80;83.90;;;;;;5009290;28;20430;-66
2023/03/16 11:22:11;;;;;;;1.93;1.00;;;9.80;84.70;;;;;;5009394;28;20465;-67
2023/03/16 11:25:02;;;;;;;2.53;1.33;;;9.90;82.10;;;;;;5009910;28;20453;-67
2023/03/16 11:27:56;;;;;;;3.93;1.07;;;10.10;84.80;;;;;;5004739;28;21153;-67
2023/03/16 11:31:03;;;;;;;2.53;1.30;;;10.40;82.50;;;;;;5004607;28;20873;-65
2023/03/16 11:33:30;;;;;;;4.73;1.17;;;10.60;84.60;;;;;;4986899;28;20614;-66
2023/03/16 11:36:10;;;;;;;1.63;1.00;;;10.60;82.00;;;;;;5028985;28;21160;-66
2023/03/16 11:38:58;;;;;;;1.67;0.90;;;10.60;78.40;;;;;;5015795;28;20468;-66
2023/03/16 11:42:08;;;;;;;2.50;1.30;;;10.60;80.70;;;;;;5013139;28;20414;-66
2023/03/16 11:44:43;;;;;;;5.73;1.17;;;10.50;79.40;;;;;;4984001;28;20894;-66
2023/03/16 11:47:21;;;;;;;1.50;0.80;;;10.50;78.60;;;;;;5012756;28;20426;-66
2023/03/16 11:50:02;;;;;;;3.00;1.27;;;10.70;76.30;;;;;;4996450;28;20429;-66
2023/03/16 11:52:35;;;;;;;3.77;1.67;;;10.70;77.00;;;;;;5008967;28;20978;-66
2023/03/16 11:55:14;;;;;;;1.53;0.80;;;10.70;77.10;;;;;;5009398;28;20921;-66
2023/03/16 11:57:52;;;;;;;2.30;1.17;;;10.90;75.50;;;;;;5008670;28;20512;-66
2023/03/16 12:00:45;;;;;;;1.70;1.00;;;10.90;76.10;;;;;;5009966;28;20444;-66
2023/03/16 12:03:32;;;;;;;5.03;0.83;;;10.90;76.70;;;;;;4989217;28;20407;-66
2023/03/16 12:06:06;;;;;;;2.40;1.17;;;11.00;75.10;;;;;;4995234;28;20446;-65
2023/03/16 12:08:56;;;;;;;3.37;1.30;;;11.10;73.90;;;;;;5007068;28;20487;-67
2023/03/16 12:11:36;;;;;;;1.70;0.90;;;11.10;73.80;;;;;;5005624;28;20425;-67
2023/03/16 12:14:37;;;;;;;3.37;0.93;;;10.90;70.90;;;;;;4990338;28;20427;-66
2023/03/16 12:17:07;;;;;;;2.70;1.30;;;11.00;73.00;;;;;;5005269;28;21116;-67
2023/03/16 12:19:55;;;;;;;3.30;1.17;;;11.30;75.80;;;;;;4994894;28;20654;-67
2023/03/16 12:22:21;;;;;;;1.90;0.90;;;11.40;76.30;;;;;;4988938;28;20525;-67
2023/03/16 12:24:48;;;;;;;3.53;1.00;;;11.60;74.70;;;;;;4999194;28;20974;-67
2023/03/16 12:27:17;;;;;;;2.30;1.23;;;11.70;76.20;;;;;;4995674;28;20194;-66
2023/03/16 12:30:02;;;;;;;6.80;1.43;;;12.00;75.90;;;;;;5008264;28;20448;-67
2023/03/16 12:32:44;;;;;;;1.83;0.90;;;11.70;70.70;;;;;;4998254;28;20429;-67
2023/03/16 12:35:12;;;;;;;2.70;1.07;;;11.60;71.90;;;;;;5007155;28;20465;-67
2023/03/16 12:37:51;;;;;;;4.03;0.70;;;11.60;71.70;;;;;;4998626;28;20467;-68
2023/03/16 12:40:39;;;;;;;1.30;0.63;;;11.70;72.20;;;;;;4994708;28;20505;-67
2023/03/16 12:43:23;;;;;;;2.37;0.83;;;11.50;72.70;;;;;;5005049;28;21791;-67
2023/03/16 12:46:07;;;;;;;1.87;0.80;;;11.10;70.30;;;;;;5008903;28;20509;-67
2023/03/16 12:48:38;;;;;;;1.63;0.80;;;11.40;74.30;;;;;;4985934;28;20508;-67
2023/03/16 12:51:05;;;;;;;4.90;1.10;;;11.80;72.40;;;;;;5008039;28;20430;-67
2023/03/16 12:53:39;;;;;;;1.23;0.57;;;11.90;72.90;;;;;;5004701;28;20426;-67
2023/03/16 12:56:11;;;;;;;11.70;1.63;;;11.80;73.80;;;;;;4998116;28;20436;-67
2023/03/16 12:58:44;;;;;;;1.90;0.73;;;11.90;73.20;;;;;;5010962;28;20465;-67
2023/03/16 13:01:12;;;;;;;2.57;0.97;;;11.80;73.70;;;;;;5012478;28;20422;-68
2023/03/16 13:03:38;;;;;;;2.57;0.90;;;11.80;73.90;;;;;;5012809;28;20552;-67
2023/03/16 13:06:04;;;;;;;1.53;0.90;;;11.70;73.40;;;;;;5006024;28;20427;-68
2023/03/16 13:08:46;;;;;;;1.50;0.67;;;12.00;72.20;;;;;;4994020;28;20455;-67
2023/03/16 13:11:13;;;;;;;1.60;0.80;;;11.90;70.60;;;;;;4983670;28;20423;-65
2023/03/16 13:14:00;;;;;;;5.10;0.90;;;11.70;70.90;;;;;;4987805;28;20457;-65
2023/03/16 13:16:27;;;;;;;2.23;1.27;;;11.80;72.80;;;;;;5005191;28;20429;-66
2023/03/16 13:18:53;;;;;;;1.83;0.70;;;12.00;72.20;;;;;;5009879;28;20764;-65
2023/03/16 13:21:38;;;;;;;2.23;1.00;;;12.40;71.20;;;;;;5001559;28;20493;-66
2023/03/16 13:24:13;;;;;;;1.97;0.90;;;12.70;71.30;;;;;;4988699;28;20413;-66
2023/03/16 13:26:47;;;;;;;1.83;0.70;;;13.00;71.50;;;;;;4996055;28;20537;-66
2023/03/16 13:29:25;;;;;;;6.10;0.60;;;13.00;69.20;;;;;;4993420;28;20415;-66
2023/03/16 13:31:53;;;;;;;2.23;0.70;;;12.80;68.40;;;;;;5006711;28;20421;-66
2023/03/16 13:34:26;;;;;;;1.30;0.60;;;12.60;70.30;;;;;;5008593;28;21157;-66
2023/03/16 13:36:56;;;;;;;2.20;0.80;;;12.80;69.20;;;;;;5006185;28;20469;-66
2023/03/16 13:39:27;;;;;;;2.23;0.90;;;12.70;66.50;;;;;;4993597;28;20421;-66
2023/03/16 13:42:19;;;;;;;1.80;0.77;;;12.80;67.90;;;;;;4992224;28;20481;-66
2023/03/16 13:44:45;;;;;;;4.53;1.53;;;12.70;66.40;;;;;;5006515;28;20436;-67
2023/03/16 13:47:15;;;;;;;1.57;0.80;;;12.60;67.70;;;;;;5002982;28;20421;-66
2023/03/16 13:49:56;;;;;;;1.50;0.60;;;12.70;67.20;;;;;;4998025;28;20655;-67
2023/03/16 13:52:29;;;;;;;3.47;0.87;;;12.80;66.60;;;;;;5008835;28;20434;-67
2023/03/16 13:54:57;;;;;;;2.33;0.90;;;12.70;65.90;;;;;;4983424;28;20430;-67
2023/03/16 13:57:26;;;;;;;3.40;1.23;;;12.90;67.80;;;;;;5005067;28;20842;-67
2023/03/16 13:59:59;;;;;;;6.20;1.10;;;12.80;69.50;;;;;;5001549;28;20422;-67
2023/03/16 14:02:25;;;;;;;4.50;0.97;;;12.90;70.70;;;;;;5011939;28;20418;-67
2023/03/16 14:04:51;;;;;;;1.80;0.80;;;12.90;68.50;;;;;;5003287;28;20422;-67
2023/03/16 14:07:19;;;;;;;7.80;0.80;;;12.90;65.90;;;;;;4992689;28;20256;-67
2023/03/16 14:09:45;;;;;;;2.40;1.00;;;12.80;66.00;;;;;;4991233;28;20270;-67
2023/03/16 14:12:16;;;;;;;2.90;0.87;;;12.70;66.40;;;;;;4993440;28;20505;-67
2023/03/16 14:14:48;;;;;;;1.80;0.80;;;12.80;67.50;;;;;;4987251;28;20423;-67
2023/03/16 14:17:18;;;;;;;2.73;0.90;;;12.70;66.90;;;;;;4981607;28;20493;-66
2023/03/16 14:19:44;;;;;;;2.93;1.20;;;12.30;65.10;;;;;;4987056;28;20431;-67
2023/03/16 14:22:16;;;;;;;2.20;1.10;;;12.20;69.60;;;;;;4994401;28;20426;-66
2023/03/16 14:24:44;;;;;;;2.00;0.83;;;12.10;66.60;;;;;;4996374;28;20501;-67
2023/03/16 14:27:16;;;;;;;2.00;1.37;;;12.00;68.20;;;;;;4992947;28;20427;-67
2023/03/16 14:29:43;;;;;;;2.50;1.07;;;12.00;67.90;;;;;;4992379;28;20430;-67
2023/03/16 14:32:29;;;;;;;6.50;1.20;;;12.20;67.00;;;;;;4999371;28;20448;-67
2023/03/16 14:35:16;;;;;;;3.20;0.97;;;12.10;69.00;;;;;;4998872;28;20895;-67
2023/03/16 14:37:42;;;;;;;1.60;0.70;;;12.30;68.00;;;;;;4994370;28;20474;-67
2023/03/16 14:40:31;;;;;;;1.77;0.60;;;12.40;68.10;;;;;;5010465;28;20413;-67
2023/03/16 14:42:59;;;;;;;6.30;0.90;;;12.40;67.90;;;;;;4985762;28;20427;-67
2023/03/16 14:45:33;;;;;;;1.97;0.70;;;12.50;68.10;;;;;;5001689;28;20452;-67